createdAt,value
2018-02-20T00:00:55.423Z,31.8
2018-02-20T00:01:56.152Z,32.3
2018-02-20T00:02:56.884Z,31.5
2018-02-20T00:03:57.611Z,33.0
2018-02-20T00:04:58.326Z,32.6
2018-02-20T00:05:59.052Z,30.8
2018-02-20T00:06:59.773Z,72.9
2018-02-20T00:08:00.548Z,46.8
2018-02-20T00:09:01.337Z,37.8
2018-02-20T00:10:02.060Z,39.0
2018-02-20T00:11:02.869Z,37.1
2018-02-20T00:12:03.646Z,40.8
2018-02-20T00:13:04.427Z,37.3
2018-02-20T00:14:05.232Z,35.5
2018-02-20T00:15:06.016Z,33.2
2018-02-20T00:16:06.737Z,34.6
2018-02-20T00:17:07.444Z,31.5
2018-02-20T00:18:08.167Z,32.8
2018-02-20T00:19:08.892Z,31.8
2018-02-20T00:20:09.607Z,33.1
2018-02-20T00:21:10.403Z,31.9
2018-02-20T00:22:11.125Z,33.5
2018-02-20T00:23:11.844Z,33.0
2018-02-20T00:24:12.634Z,32.7
2018-02-20T00:25:13.358Z,33.1
2018-02-20T00:26:14.136Z,32.3
2018-02-20T00:27:14.809Z,33.4
2018-02-20T00:28:15.518Z,32.8
2018-02-20T00:29:16.232Z,32.2
2018-02-20T00:30:16.957Z,31.8
2018-02-20T00:31:17.738Z,32.6
2018-02-20T00:32:18.537Z,33.7
2018-02-20T00:33:19.264Z,31.7
2018-02-20T00:34:19.978Z,33.6
2018-02-20T00:35:20.705Z,32.8
2018-02-20T00:36:21.426Z,32.3
2018-02-20T00:37:22.158Z,31.6
2018-02-20T00:38:22.960Z,32.1
2018-02-20T00:39:23.759Z,31.8
2018-02-20T00:40:24.556Z,34.3
2018-02-20T00:41:25.333Z,32.3
2018-02-20T00:42:26.062Z,34.3
2018-02-20T00:43:26.787Z,34.1
2018-02-20T00:44:27.512Z,33.5
2018-02-20T00:45:28.230Z,33.5
2018-02-20T00:46:28.946Z,31.8
2018-02-20T00:47:29.737Z,32.4
2018-02-20T00:48:30.457Z,33.4
2018-02-20T00:49:31.176Z,33.2
2018-02-20T00:50:31.893Z,32.9
2018-02-20T00:51:32.624Z,32.5
2018-02-20T00:52:33.393Z,33.0
2018-02-20T00:53:34.126Z,32.9
2018-02-20T00:54:34.833Z,32.5
2018-02-20T00:55:35.544Z,33.2
2018-02-20T00:56:36.263Z,34.2
2018-02-20T00:57:37.004Z,33.1
2018-02-20T00:58:37.721Z,33.3
2018-02-20T00:59:38.441Z,33.1
2018-02-20T01:00:39.172Z,32.5
2018-02-20T01:01:39.907Z,31.8
2018-02-20T01:02:40.623Z,32.8
2018-02-20T01:03:41.395Z,33.0
2018-02-20T01:04:42.106Z,32.5
2018-02-20T01:05:42.832Z,33.0
2018-02-20T01:06:43.570Z,33.5
2018-02-20T01:07:44.309Z,32.8
2018-02-20T01:08:45.077Z,33.3
2018-02-20T01:09:45.803Z,33.5
2018-02-20T01:10:46.578Z,32.0
2018-02-20T01:11:47.383Z,32.3
2018-02-20T01:12:48.097Z,33.1
2018-02-20T01:13:48.824Z,32.1
2018-02-20T01:14:49.599Z,34.1
2018-02-20T01:15:50.327Z,35.4
2018-02-20T01:16:51.070Z,34.5
2018-02-20T01:17:51.886Z,33.7
2018-02-20T01:18:52.585Z,33.3
2018-02-20T01:19:53.417Z,35.7
2018-02-20T01:20:54.140Z,36.1
2018-02-20T01:21:54.857Z,34.8
2018-02-20T01:22:55.624Z,36.3
2018-02-20T01:23:56.345Z,36.8
2018-02-20T01:24:57.114Z,35.7
2018-02-20T01:25:57.838Z,36.1
2018-02-20T01:26:58.623Z,37.3
2018-02-20T01:27:59.351Z,36.7
2018-02-20T01:29:00.064Z,35.9
2018-02-20T01:30:00.837Z,35.2
2018-02-20T01:31:01.567Z,36.2
2018-02-20T01:32:02.298Z,37.2
2018-02-20T01:33:03.082Z,37.3
2018-02-20T01:34:03.846Z,36.9
2018-02-20T01:35:04.605Z,36.9
2018-02-20T01:36:05.317Z,39.4
2018-02-20T01:37:06.045Z,37.3
2018-02-20T01:38:06.835Z,37.0
2018-02-20T01:39:07.567Z,37.0
2018-02-20T01:40:08.309Z,37.7
2018-02-20T01:41:09.084Z,36.6
2018-02-20T01:42:09.855Z,35.9
2018-02-20T01:43:10.566Z,38.0
2018-02-20T01:44:11.275Z,37.5
2018-02-20T01:45:12.001Z,35.0
2018-02-20T01:46:12.723Z,37.3
2018-02-20T01:47:13.493Z,38.8
2018-02-20T01:48:14.227Z,37.5
2018-02-20T01:49:14.949Z,37.6
2018-02-20T01:50:15.753Z,36.8
2018-02-20T01:51:16.541Z,38.0
2018-02-20T01:52:17.262Z,38.7
2018-02-20T01:53:17.998Z,38.4
2018-02-20T01:54:18.744Z,38.7
2018-02-20T01:55:19.480Z,37.1
2018-02-20T01:56:20.274Z,36.5
2018-02-20T01:57:21.017Z,38.6
2018-02-20T01:58:21.738Z,40.8
2018-02-20T01:59:22.565Z,38.8
2018-02-20T02:00:23.295Z,39.0
2018-02-20T02:01:24.087Z,40.3
2018-02-20T02:02:24.884Z,41.0
2018-02-20T02:03:25.652Z,43.2
2018-02-20T02:04:26.419Z,42.3
2018-02-20T02:05:27.233Z,43.0
2018-02-20T02:06:27.951Z,42.4
2018-02-20T02:07:28.652Z,41.9
2018-02-20T02:08:29.370Z,41.5
2018-02-20T02:09:30.097Z,42.3
2018-02-20T02:10:30.826Z,40.9
2018-02-20T02:11:31.559Z,41.1
2018-02-20T02:12:32.285Z,41.9
2018-02-20T02:13:33.030Z,41.9
2018-02-20T02:14:33.738Z,40.5
2018-02-20T02:15:34.465Z,42.6
2018-02-20T02:16:35.197Z,40.1
2018-02-20T02:17:35.913Z,43.4
2018-02-20T02:18:36.627Z,41.3
2018-02-20T02:19:37.358Z,41.4
2018-02-20T02:20:38.206Z,41.0
2018-02-20T02:21:39.014Z,41.6
2018-02-20T02:22:39.747Z,42.4
2018-02-20T02:23:40.539Z,43.6
2018-02-20T02:24:41.325Z,43.2
2018-02-20T02:25:42.032Z,42.4
2018-02-20T02:26:42.746Z,43.4
2018-02-20T02:27:43.477Z,41.4
2018-02-20T02:28:44.197Z,41.0
2018-02-20T02:29:44.978Z,41.1
2018-02-20T02:30:45.766Z,42.0
2018-02-20T02:31:46.484Z,40.4
2018-02-20T02:32:47.213Z,40.1
2018-02-20T02:33:47.937Z,40.7
2018-02-20T02:34:48.655Z,40.4
2018-02-20T02:35:49.481Z,39.7
2018-02-20T02:36:50.196Z,41.9
2018-02-20T02:37:50.916Z,40.4
2018-02-20T02:38:51.628Z,42.6
2018-02-20T02:39:52.442Z,41.8
2018-02-20T02:40:53.166Z,47.0
2018-02-20T02:41:53.894Z,43.5
2018-02-20T02:42:54.617Z,43.6
2018-02-20T02:43:55.400Z,44.2
2018-02-20T02:44:56.125Z,42.0
2018-02-20T02:45:56.876Z,43.4
2018-02-20T02:46:57.667Z,43.0
2018-02-20T02:47:58.482Z,42.1
2018-02-20T02:48:59.169Z,42.0
2018-02-20T02:49:59.936Z,44.3
2018-02-20T02:51:00.737Z,42.5
2018-02-20T02:52:01.515Z,43.1
2018-02-20T02:53:02.307Z,45.1
2018-02-20T02:54:03.026Z,42.0
2018-02-20T02:55:03.799Z,42.3
2018-02-20T02:56:04.535Z,41.3
2018-02-20T02:57:05.265Z,43.3
2018-02-20T02:58:05.984Z,43.1
2018-02-20T02:59:06.704Z,41.3
2018-02-20T03:00:07.417Z,42.6
2018-02-20T03:01:08.132Z,44.1
2018-02-20T03:02:08.933Z,43.8
2018-02-20T03:03:09.653Z,45.8
2018-02-20T03:04:10.376Z,45.0
2018-02-20T03:05:11.148Z,42.3
2018-02-20T03:06:11.904Z,44.0
2018-02-20T03:07:12.714Z,42.8
2018-02-20T03:08:13.355Z,42.2
2018-02-20T03:09:14.069Z,43.8
2018-02-20T03:10:14.939Z,44.9
2018-02-20T03:11:15.658Z,43.7
2018-02-20T03:12:16.368Z,40.0
2018-02-20T03:13:17.085Z,42.8
2018-02-20T03:14:17.800Z,42.5
2018-02-20T03:15:18.584Z,42.9
2018-02-20T03:16:19.327Z,42.4
2018-02-20T03:17:20.061Z,41.5
2018-02-20T03:18:20.857Z,42.5
2018-02-20T03:19:21.577Z,41.7
2018-02-20T03:20:22.365Z,42.1
2018-02-20T03:21:23.164Z,41.0
2018-02-20T03:22:23.948Z,42.1
2018-02-20T03:23:24.671Z,44.0
2018-02-20T03:24:25.467Z,43.3
2018-02-20T03:25:26.247Z,43.4
2018-02-20T03:26:27.040Z,44.7
2018-02-20T03:27:27.775Z,44.4
2018-02-20T03:28:28.597Z,46.8
2018-02-20T03:29:29.318Z,46.3
2018-02-20T03:30:30.045Z,45.5
2018-02-20T03:31:30.757Z,45.8
2018-02-20T03:32:31.468Z,48.4
2018-02-20T03:33:32.191Z,49.0
2018-02-20T03:34:32.920Z,47.0
2018-02-20T03:35:33.702Z,47.9
2018-02-20T03:36:34.417Z,49.0
2018-02-20T03:37:35.142Z,49.6
2018-02-20T03:38:35.926Z,50.2
2018-02-20T03:39:36.657Z,48.7
2018-02-20T03:40:37.373Z,49.9
2018-02-20T03:41:38.090Z,51.2
2018-02-20T03:42:38.820Z,48.0
2018-02-20T03:43:39.532Z,49.8
2018-02-20T03:44:40.258Z,50.0
2018-02-20T03:45:41.074Z,49.4
2018-02-20T03:46:41.880Z,49.9
2018-02-20T03:47:42.603Z,49.4
2018-02-20T03:48:43.320Z,51.7
2018-02-20T03:49:44.044Z,51.3
2018-02-20T03:50:44.775Z,50.6
2018-02-20T03:51:45.540Z,49.6
2018-02-20T03:52:46.278Z,52.5
2018-02-20T03:53:47.009Z,50.4
2018-02-20T03:54:47.785Z,53.7
2018-02-20T03:55:48.505Z,53.7
2018-02-20T03:56:49.229Z,52.4
2018-02-20T03:57:49.948Z,51.5
2018-02-20T03:58:50.703Z,50.6
2018-02-20T03:59:51.480Z,51.7
2018-02-20T04:00:52.209Z,51.8
2018-02-20T04:01:52.931Z,51.4
2018-02-20T04:02:53.720Z,52.0
2018-02-20T04:03:54.504Z,51.0
2018-02-20T04:04:55.232Z,52.5
2018-02-20T04:05:56.007Z,50.9
2018-02-20T04:06:56.730Z,51.0
2018-02-20T04:07:57.503Z,53.4
2018-02-20T04:08:58.223Z,51.0
2018-02-20T04:09:58.967Z,49.2
2018-02-20T04:10:59.679Z,49.3
2018-02-20T04:12:00.448Z,48.7
2018-02-20T04:13:01.198Z,50.0
2018-02-20T04:14:01.917Z,50.7
2018-02-20T04:15:02.657Z,51.9
2018-02-20T04:16:03.383Z,52.3
2018-02-20T04:17:04.161Z,54.0
2018-02-20T04:18:04.878Z,53.1
2018-02-20T04:19:05.684Z,52.0
2018-02-20T04:20:06.471Z,54.8
2018-02-20T04:21:07.238Z,53.6
2018-02-20T04:22:07.970Z,52.5
2018-02-20T04:23:08.691Z,52.9
2018-02-20T04:24:09.410Z,51.6
2018-02-20T04:25:10.181Z,54.2
2018-02-20T04:26:10.963Z,53.3
2018-02-20T04:27:11.741Z,54.9
2018-02-20T04:28:12.490Z,54.3
2018-02-20T04:29:13.212Z,53.0
2018-02-20T04:30:13.932Z,55.6
2018-02-20T04:31:14.694Z,54.3
2018-02-20T04:32:15.430Z,54.3
2018-02-20T04:33:16.147Z,53.7
2018-02-20T04:34:16.876Z,52.4
2018-02-20T04:35:17.611Z,53.9
2018-02-20T04:36:18.433Z,54.1
2018-02-20T04:37:19.168Z,52.5
2018-02-20T04:38:19.935Z,54.0
2018-02-20T04:39:20.660Z,54.0
2018-02-20T04:40:21.387Z,52.8
2018-02-20T04:41:22.109Z,51.4
2018-02-20T04:42:22.832Z,50.8
2018-02-20T04:43:23.560Z,51.1
2018-02-20T04:44:24.279Z,53.0
2018-02-20T04:45:25.020Z,49.5
2018-02-20T04:46:25.749Z,53.6
2018-02-20T04:47:26.553Z,50.8
2018-02-20T04:48:27.332Z,52.4
2018-02-20T04:49:28.057Z,51.4
2018-02-20T04:50:28.868Z,51.7
2018-02-20T04:51:29.592Z,54.2
2018-02-20T04:52:30.309Z,52.6
2018-02-20T04:53:31.026Z,52.0
2018-02-20T04:54:31.749Z,49.7
2018-02-20T04:55:32.514Z,50.8
2018-02-20T04:56:33.238Z,50.0
2018-02-20T04:57:33.988Z,50.6
2018-02-20T04:58:34.714Z,50.8
2018-02-20T04:59:35.516Z,50.7
2018-02-20T05:00:36.231Z,48.9
2018-02-20T05:01:37.007Z,48.5
2018-02-20T05:02:37.810Z,48.1
2018-02-20T05:03:38.557Z,50.7
2018-02-20T05:04:39.266Z,49.8
2018-02-20T05:05:39.993Z,48.0
2018-02-20T05:06:40.827Z,51.4
2018-02-20T05:07:41.537Z,49.4
2018-02-20T05:08:42.238Z,50.7
2018-02-20T05:09:42.961Z,51.3
2018-02-20T05:10:43.732Z,48.9
2018-02-20T05:11:44.440Z,54.4
2018-02-20T05:12:45.236Z,51.9
2018-02-20T05:13:45.950Z,52.3
2018-02-20T05:14:46.668Z,53.7
2018-02-20T05:15:47.463Z,52.8
2018-02-20T05:16:48.188Z,52.6
2018-02-20T05:17:48.917Z,50.7
2018-02-20T05:18:49.640Z,49.8
2018-02-20T05:19:50.424Z,50.1
2018-02-20T05:20:51.195Z,48.3
2018-02-20T05:21:51.904Z,47.8
2018-02-20T05:22:52.625Z,49.5
2018-02-20T05:23:53.353Z,48.5
2018-02-20T05:24:54.076Z,46.6
2018-02-20T05:25:54.799Z,49.6
2018-02-20T05:26:55.524Z,47.9
2018-02-20T05:27:56.359Z,48.0
2018-02-20T05:28:57.081Z,48.6
2018-02-20T05:29:57.799Z,49.7
2018-02-20T05:30:58.536Z,50.3
2018-02-20T05:31:59.312Z,49.4
2018-02-20T05:33:00.049Z,50.1
2018-02-20T05:34:00.775Z,47.5
2018-02-20T05:35:01.496Z,49.5
2018-02-20T05:36:02.234Z,48.3
2018-02-20T05:37:02.979Z,47.6
2018-02-20T05:38:03.717Z,47.0
2018-02-20T05:39:04.490Z,46.5
2018-02-20T05:40:05.247Z,45.1
2018-02-20T05:41:05.957Z,46.1
2018-02-20T05:42:06.678Z,47.4
2018-02-20T05:43:07.391Z,49.4
2018-02-20T05:44:08.096Z,48.2
2018-02-20T05:45:08.796Z,47.2
2018-02-20T05:46:09.556Z,48.0
2018-02-20T05:47:10.278Z,48.8
2018-02-20T05:48:11.001Z,48.4
2018-02-20T05:49:11.725Z,49.1
2018-02-20T05:50:12.453Z,49.8
2018-02-20T05:51:13.177Z,48.0
2018-02-20T05:52:13.908Z,48.3
2018-02-20T05:53:14.761Z,48.3
2018-02-20T05:54:15.560Z,49.6
2018-02-20T05:55:16.346Z,49.5
2018-02-20T05:56:17.080Z,46.8
2018-02-20T05:57:17.848Z,48.5
2018-02-20T05:58:18.685Z,48.7
2018-02-20T05:59:19.410Z,47.9
2018-02-20T06:00:20.138Z,47.3
2018-02-20T06:01:20.870Z,45.3
2018-02-20T06:02:21.657Z,45.5
2018-02-20T06:03:22.390Z,44.9
2018-02-20T06:04:23.179Z,47.3
2018-02-20T06:05:23.890Z,47.8
2018-02-20T06:06:24.613Z,48.7
2018-02-20T06:07:25.397Z,47.6
2018-02-20T06:08:26.134Z,49.3
2018-02-20T06:09:26.917Z,49.0
2018-02-20T06:10:27.639Z,50.1
2018-02-20T06:11:28.361Z,47.5
2018-02-20T06:12:29.085Z,46.6
2018-02-20T06:13:29.808Z,50.3
2018-02-20T06:14:30.540Z,49.3
2018-02-20T06:15:31.269Z,47.7
2018-02-20T06:16:31.996Z,47.6
2018-02-20T06:17:32.726Z,49.7
2018-02-20T06:18:33.459Z,50.0
2018-02-20T06:19:34.268Z,47.0
2018-02-20T06:20:35.021Z,45.9
2018-02-20T06:21:35.749Z,50.3
2018-02-20T06:22:36.498Z,49.2
2018-02-20T06:23:37.225Z,48.0
2018-02-20T06:24:37.949Z,50.2
2018-02-20T06:25:38.667Z,50.3
2018-02-20T06:26:39.395Z,49.5
2018-02-20T06:27:40.129Z,52.2
2018-02-20T06:28:40.916Z,51.7
2018-02-20T06:29:41.637Z,52.2
2018-02-20T06:30:42.379Z,52.0
2018-02-20T06:31:43.140Z,50.3
2018-02-20T06:32:43.925Z,49.6
2018-02-20T06:33:44.666Z,51.2
2018-02-20T06:34:45.366Z,49.6
2018-02-20T06:35:46.097Z,48.6
2018-02-20T06:36:46.832Z,52.2
2018-02-20T06:37:47.599Z,50.6
2018-02-20T06:38:48.390Z,52.5
2018-02-20T06:39:49.121Z,51.3
2018-02-20T06:40:49.897Z,51.2
2018-02-20T06:41:50.626Z,50.0
2018-02-20T06:42:51.378Z,51.9
2018-02-20T06:43:52.097Z,53.0
2018-02-20T06:44:52.833Z,53.7
2018-02-20T06:45:53.599Z,49.5
2018-02-20T06:46:54.316Z,53.6
2018-02-20T06:47:55.088Z,52.8
2018-02-20T06:48:55.886Z,51.6
2018-02-20T06:49:56.610Z,50.3
2018-02-20T06:50:57.340Z,49.4
2018-02-20T06:51:58.068Z,136.6
2018-02-20T06:52:58.800Z,60.4
2018-02-20T06:53:59.518Z,55.2
2018-02-20T06:55:00.236Z,54.8
2018-02-20T06:56:00.968Z,53.2
2018-02-20T06:57:01.715Z,53.7
2018-02-20T06:58:02.467Z,51.3
2018-02-20T06:59:03.218Z,54.1
2018-02-20T07:00:03.956Z,53.4
2018-02-20T07:01:04.678Z,55.1
2018-02-20T07:02:05.408Z,54.0
2018-02-20T07:03:06.126Z,56.0
2018-02-20T07:04:06.858Z,53.5
2018-02-20T07:05:07.631Z,55.2
2018-02-20T07:06:08.358Z,54.3
2018-02-20T07:07:09.084Z,56.3
2018-02-20T07:08:09.817Z,56.0
2018-02-20T07:09:10.563Z,58.7
2018-02-20T07:10:11.377Z,59.2
2018-02-20T07:11:12.110Z,60.6
2018-02-20T07:12:12.840Z,61.3
2018-02-20T07:13:13.549Z,59.6
2018-02-20T07:14:14.277Z,60.4
2018-02-20T07:15:15.059Z,60.4
2018-02-20T07:16:15.778Z,59.6
2018-02-20T07:17:16.504Z,61.1
2018-02-20T07:18:17.259Z,60.4
2018-02-20T07:19:18.006Z,62.1
2018-02-20T07:20:18.781Z,65.4
2018-02-20T07:21:19.523Z,63.7
2018-02-20T07:22:20.295Z,62.2
2018-02-20T07:23:21.020Z,62.1
2018-02-20T07:24:21.780Z,60.7
2018-02-20T07:25:22.539Z,58.2
2018-02-20T07:26:23.260Z,60.2
2018-02-20T07:27:23.982Z,59.4
2018-02-20T07:28:24.786Z,59.5
2018-02-20T07:29:25.512Z,61.3
2018-02-20T07:30:26.236Z,59.4
2018-02-20T07:31:26.965Z,62.6
2018-02-20T07:32:27.698Z,61.9
2018-02-20T07:33:28.453Z,63.8
2018-02-20T07:34:29.179Z,63.0
2018-02-20T07:35:29.896Z,61.9
2018-02-20T07:36:30.659Z,58.9
2018-02-20T07:37:31.386Z,59.1
2018-02-20T07:38:32.114Z,56.8
2018-02-20T07:39:32.845Z,54.4
2018-02-20T07:40:33.572Z,53.7
2018-02-20T07:41:34.368Z,52.8
2018-02-20T07:42:35.159Z,50.7
2018-02-20T07:43:37.097Z,49.6
2018-02-20T07:44:37.946Z,50.4
2018-02-20T07:45:39.837Z,49.9
2018-02-20T07:46:42.178Z,49.3
2018-02-20T07:47:43.150Z,46.4
2018-02-20T07:48:43.985Z,47.3
2018-02-20T07:49:45.903Z,48.1
2018-02-20T07:50:46.852Z,46.7
2018-02-20T07:51:47.637Z,43.0
2018-02-20T07:52:48.376Z,43.6
2018-02-20T07:53:49.108Z,39.4
2018-02-20T07:54:49.817Z,36.2
2018-02-20T07:55:50.643Z,38.2
2018-02-20T07:56:51.434Z,38.3
2018-02-20T07:57:52.148Z,35.5
2018-02-20T07:58:52.880Z,35.8
2018-02-20T07:59:53.590Z,36.5
2018-02-20T08:00:54.318Z,33.8
2018-02-20T08:01:55.020Z,35.4
2018-02-20T08:02:55.732Z,33.0
2018-02-20T08:03:56.448Z,34.6
2018-02-20T08:04:57.230Z,32.0
2018-02-20T08:05:57.949Z,31.4
2018-02-20T08:06:58.684Z,32.1
2018-02-20T08:07:59.419Z,31.9
2018-02-20T08:09:00.147Z,31.7
2018-02-20T08:10:00.868Z,30.9
2018-02-20T08:11:01.645Z,30.7
2018-02-20T08:12:02.367Z,30.4
2018-02-20T08:13:03.144Z,30.4
2018-02-20T08:14:04.384Z,30.8
2018-02-20T08:15:05.036Z,31.8
2018-02-20T08:16:05.786Z,31.0
2018-02-20T08:17:06.560Z,30.9
2018-02-20T08:18:07.285Z,32.1
2018-02-20T08:19:08.016Z,29.9
2018-02-20T08:20:08.736Z,30.6
2018-02-20T08:21:09.488Z,29.8
2018-02-20T08:22:10.273Z,30.6
2018-02-20T08:23:10.991Z,32.2
2018-02-20T08:24:11.727Z,29.5
2018-02-20T08:25:12.446Z,30.7
2018-02-20T08:26:13.133Z,32.0
2018-02-20T08:27:13.896Z,31.4
2018-02-20T08:28:14.614Z,31.2
2018-02-20T08:29:15.350Z,31.5
2018-02-20T08:30:16.100Z,30.1
2018-02-20T08:31:16.852Z,29.9
2018-02-20T08:32:17.578Z,31.7
2018-02-20T08:33:18.310Z,31.6
2018-02-20T08:34:19.029Z,31.7
2018-02-20T08:35:19.758Z,31.9
2018-02-20T08:36:20.556Z,32.4
2018-02-20T08:37:21.284Z,31.3
2018-02-20T08:38:22.134Z,32.2
2018-02-20T08:39:22.906Z,32.7
2018-02-20T08:40:23.637Z,31.6
2018-02-20T08:41:24.389Z,31.6
2018-02-20T08:42:25.108Z,31.9
2018-02-20T08:43:25.963Z,31.8
2018-02-20T08:44:26.766Z,30.0
2018-02-20T08:45:27.553Z,31.3
2018-02-20T08:46:28.272Z,32.0
2018-02-20T08:47:29.008Z,33.6
2018-02-20T08:48:29.745Z,35.5
2018-02-20T08:49:30.464Z,35.0
2018-02-20T08:50:31.175Z,35.5
2018-02-20T08:51:31.909Z,36.0
2018-02-20T08:52:32.640Z,33.2
2018-02-20T08:53:33.437Z,34.7
2018-02-20T08:54:34.185Z,32.4
2018-02-20T08:55:34.907Z,32.8
2018-02-20T08:56:35.678Z,32.1
2018-02-20T08:57:36.409Z,33.7
2018-02-20T08:58:37.137Z,33.4
2018-02-20T08:59:37.856Z,33.3
2018-02-20T09:00:38.580Z,31.6
2018-02-20T09:01:39.368Z,32.0
2018-02-20T09:02:40.148Z,32.5
2018-02-20T09:03:40.945Z,31.6
2018-02-20T09:04:41.762Z,31.2
2018-02-20T09:05:42.537Z,30.9
2018-02-20T09:06:43.350Z,31.9
2018-02-20T09:07:44.074Z,31.6
2018-02-20T09:08:44.789Z,31.9
2018-02-20T09:09:45.540Z,32.6
2018-02-20T09:10:46.326Z,31.4
2018-02-20T09:11:47.059Z,31.8
2018-02-20T09:12:47.788Z,32.3
2018-02-20T09:13:48.531Z,32.0
2018-02-20T09:14:49.259Z,31.9
2018-02-20T09:15:50.014Z,29.5
2018-02-20T09:16:50.777Z,31.6
2018-02-20T09:17:51.564Z,30.0
2018-02-20T09:18:52.324Z,30.1
2018-02-20T09:19:53.130Z,30.8
2018-02-20T09:20:53.908Z,29.3
2018-02-20T09:21:54.709Z,29.8
2018-02-20T09:22:55.422Z,31.5
2018-02-20T09:23:56.196Z,31.0
2018-02-20T09:24:56.916Z,31.8
2018-02-20T09:25:57.713Z,30.5
2018-02-20T09:26:58.399Z,30.8
2018-02-20T09:27:59.161Z,30.4
2018-02-20T09:28:59.888Z,30.5
2018-02-20T09:30:00.673Z,29.7
2018-02-20T09:31:01.412Z,31.2
2018-02-20T09:32:02.248Z,30.7
2018-02-20T09:33:02.982Z,30.2
2018-02-20T09:34:03.691Z,29.7
2018-02-20T09:35:04.413Z,31.2
2018-02-20T09:36:05.140Z,31.3
2018-02-20T09:37:05.866Z,29.2
2018-02-20T09:38:06.650Z,29.7
2018-02-20T09:39:07.375Z,30.0
2018-02-20T09:40:08.166Z,29.7
2018-02-20T09:41:08.912Z,30.0
2018-02-20T09:42:09.676Z,29.6
2018-02-20T09:43:10.418Z,29.6
2018-02-20T09:44:11.185Z,28.8
2018-02-20T09:45:11.916Z,28.7
2018-02-20T09:46:12.651Z,29.4
2018-02-20T09:47:13.377Z,30.0
2018-02-20T09:48:14.167Z,28.8
2018-02-20T09:49:14.899Z,29.2
2018-02-20T09:50:15.636Z,28.2
2018-02-20T09:51:16.400Z,29.0
2018-02-20T09:52:17.177Z,28.5
2018-02-20T09:53:18.030Z,29.4
2018-02-20T09:54:18.835Z,27.6
2018-02-20T09:55:19.634Z,27.5
2018-02-20T09:56:20.365Z,28.4
2018-02-20T09:57:21.191Z,27.1
2018-02-20T09:58:22.000Z,28.2
2018-02-20T09:59:22.747Z,27.6
2018-02-20T10:00:23.521Z,26.5
2018-02-20T10:01:24.354Z,27.2
2018-02-20T10:02:25.108Z,28.1
2018-02-20T10:03:25.886Z,27.4
2018-02-20T10:04:26.643Z,27.9
2018-02-20T10:05:27.372Z,26.4
2018-02-20T10:06:28.119Z,27.1
2018-02-20T10:07:28.839Z,27.3
2018-02-20T10:08:29.621Z,26.5
2018-02-20T10:09:30.351Z,26.3
2018-02-20T10:10:31.080Z,26.6
2018-02-20T10:11:31.870Z,24.2
2018-02-20T10:12:32.597Z,25.6
2018-02-20T10:13:33.443Z,25.5
2018-02-20T10:14:34.215Z,23.9
2018-02-20T10:15:34.958Z,25.2
2018-02-20T10:16:35.692Z,25.8
2018-02-20T10:17:36.443Z,25.0
2018-02-20T10:18:37.238Z,23.3
2018-02-20T10:19:38.037Z,24.7
2018-02-20T10:20:38.757Z,24.7
2018-02-20T10:21:39.494Z,25.3
2018-02-20T10:22:40.217Z,24.9
2018-02-20T10:23:40.987Z,23.0
2018-02-20T10:24:41.706Z,23.8
2018-02-20T10:25:42.450Z,24.1
2018-02-20T10:26:43.233Z,25.0
2018-02-20T10:27:44.025Z,22.7
2018-02-20T10:28:44.892Z,23.8
2018-02-20T10:29:45.678Z,22.8
2018-02-20T10:30:46.408Z,23.7
2018-02-20T10:31:47.214Z,23.8
2018-02-20T10:32:48.020Z,24.7
2018-02-20T10:33:48.816Z,22.1
2018-02-20T10:34:49.559Z,23.9
2018-02-20T10:35:50.298Z,23.0
2018-02-20T10:36:51.048Z,22.1
2018-02-20T10:37:51.829Z,23.6
2018-02-20T10:38:52.547Z,22.8
2018-02-20T10:39:53.331Z,22.1
2018-02-20T10:40:54.136Z,22.4
2018-02-20T10:41:54.930Z,23.0
2018-02-20T10:42:55.722Z,24.0
2018-02-20T10:43:56.478Z,22.8
2018-02-20T10:44:57.270Z,23.7
2018-02-20T10:45:58.010Z,23.5
2018-02-20T10:46:58.755Z,25.1
2018-02-20T10:47:59.512Z,24.0
2018-02-20T10:49:00.276Z,22.2
2018-02-20T10:50:01.086Z,24.6
2018-02-20T10:51:01.818Z,23.0
2018-02-20T10:52:02.536Z,24.8
2018-02-20T10:53:03.272Z,22.9
2018-02-20T10:54:04.053Z,22.3
2018-02-20T10:55:04.782Z,23.1
2018-02-20T10:56:05.546Z,23.0
2018-02-20T10:57:06.261Z,22.8
2018-02-20T10:58:07.060Z,21.7
2018-02-20T10:59:07.784Z,23.4
2018-02-20T11:00:08.526Z,22.6
2018-02-20T11:01:09.329Z,22.4
2018-02-20T11:02:10.051Z,23.0
2018-02-20T11:03:10.779Z,21.6
2018-02-20T11:04:11.521Z,21.8
2018-02-20T11:05:12.254Z,23.6
2018-02-20T11:06:13.055Z,23.6
2018-02-20T11:07:13.783Z,22.0
2018-02-20T11:08:14.521Z,23.3
2018-02-20T11:09:15.315Z,22.9
2018-02-20T11:10:16.049Z,22.7
2018-02-20T11:11:16.827Z,22.3
2018-02-20T11:12:17.620Z,23.5
2018-02-20T11:13:18.395Z,23.4
2018-02-20T11:14:19.087Z,23.2
2018-02-20T11:15:19.817Z,22.9
2018-02-20T11:16:20.596Z,23.2
2018-02-20T11:17:21.380Z,23.7
2018-02-20T11:18:22.136Z,23.6
2018-02-20T11:19:22.896Z,22.7
2018-02-20T11:20:23.684Z,23.2
2018-02-20T11:21:24.458Z,23.0
2018-02-20T11:22:25.278Z,24.5
2018-02-20T11:23:25.997Z,23.0
2018-02-20T11:24:26.730Z,23.8
2018-02-20T11:25:27.468Z,23.7
2018-02-20T11:26:28.221Z,22.6
2018-02-20T11:27:28.971Z,22.9
2018-02-20T11:28:29.749Z,22.8
2018-02-20T11:29:30.548Z,23.6
2018-02-20T11:30:31.272Z,23.5
2018-02-20T11:31:31.991Z,23.3
2018-02-20T11:32:32.718Z,24.6
2018-02-20T11:33:33.567Z,23.0
2018-02-20T11:34:34.298Z,22.0
2018-02-20T11:35:35.019Z,23.1
2018-02-20T11:36:35.746Z,22.8
2018-02-20T11:37:36.466Z,22.4
2018-02-20T11:38:37.296Z,23.1
2018-02-20T11:39:38.048Z,23.8
2018-02-20T11:40:38.784Z,23.0
2018-02-20T11:41:39.549Z,24.3
2018-02-20T11:42:40.288Z,23.8
2018-02-20T11:43:41.050Z,23.1
2018-02-20T11:44:41.858Z,23.6
2018-02-20T11:45:42.591Z,23.6
2018-02-20T11:46:43.401Z,23.0
2018-02-20T11:47:44.126Z,23.8
2018-02-20T11:48:44.878Z,24.0
2018-02-20T11:49:45.643Z,22.8
2018-02-20T11:50:46.386Z,22.6
2018-02-20T11:51:47.157Z,23.5
2018-02-20T11:52:47.904Z,22.6
2018-02-20T11:53:48.680Z,23.2
2018-02-20T11:54:49.489Z,23.0
2018-02-20T11:55:50.230Z,23.4
2018-02-20T11:56:50.965Z,23.2
2018-02-20T11:57:51.690Z,23.0
2018-02-20T11:58:52.416Z,22.6
2018-02-20T11:59:53.194Z,24.2
2018-02-20T12:00:53.996Z,24.7
2018-02-20T12:01:54.726Z,23.8
2018-02-20T12:02:55.554Z,23.9
2018-02-20T12:03:56.275Z,23.3
2018-02-20T12:04:57.002Z,22.7
2018-02-20T12:05:57.737Z,24.7
2018-02-20T12:06:58.546Z,25.3
2018-02-20T12:07:59.350Z,24.3
2018-02-20T12:09:00.092Z,24.2
2018-02-20T12:10:00.815Z,24.9
2018-02-20T12:11:01.554Z,24.8
2018-02-20T12:12:02.289Z,23.6
2018-02-20T12:13:03.090Z,25.6
2018-02-20T12:14:03.901Z,24.7
2018-02-20T12:15:04.569Z,25.8
2018-02-20T12:16:05.307Z,23.4
2018-02-20T12:17:06.055Z,25.2
2018-02-20T12:18:06.840Z,25.5
2018-02-20T12:19:07.567Z,23.7
2018-02-20T12:20:08.313Z,25.5
2018-02-20T12:21:09.049Z,25.5
2018-02-20T12:22:09.891Z,25.4
2018-02-20T12:23:10.633Z,27.0
2018-02-20T12:24:11.408Z,24.5
2018-02-20T12:26:30.441Z,24.9
2018-02-20T12:27:31.289Z,24.8
2018-02-20T12:28:32.053Z,25.3
2018-02-20T12:29:32.850Z,27.5
2018-02-20T12:30:33.579Z,26.5
2018-02-20T12:31:34.314Z,27.0
2018-02-20T12:32:35.102Z,26.2
2018-02-20T12:33:35.808Z,26.4
2018-02-20T12:34:36.545Z,25.3
2018-02-20T12:35:37.290Z,25.9
2018-02-20T12:36:38.076Z,26.1
2018-02-20T12:37:38.860Z,26.4
2018-02-20T12:38:39.651Z,25.7
2018-02-20T12:39:40.370Z,26.1
2018-02-20T12:40:41.098Z,26.2
2018-02-20T12:41:41.838Z,24.9
2018-02-20T12:42:42.619Z,26.3
2018-02-20T12:43:43.379Z,25.3
2018-02-20T12:44:44.090Z,26.1
2018-02-20T12:45:44.827Z,26.3
2018-02-20T12:46:45.557Z,26.6
2018-02-20T12:47:46.351Z,26.3
2018-02-20T12:48:47.103Z,25.3
2018-02-20T12:49:47.901Z,24.8
2018-02-20T12:50:48.642Z,25.5
2018-02-20T12:51:49.465Z,26.1
2018-02-20T12:52:50.319Z,25.9
2018-02-20T12:53:51.069Z,26.3
2018-02-20T12:54:51.865Z,26.0
2018-02-20T12:55:52.589Z,26.2
2018-02-20T12:56:53.318Z,25.9
2018-02-20T12:57:54.092Z,24.6
2018-02-20T12:58:54.844Z,26.1
2018-02-20T12:59:55.640Z,25.4
2018-02-20T13:00:56.365Z,25.0
2018-02-20T13:01:57.102Z,25.5
2018-02-20T13:02:57.842Z,24.6
2018-02-20T13:03:58.570Z,25.0
2018-02-20T13:04:59.341Z,24.9
2018-02-20T13:06:00.068Z,25.9
2018-02-20T13:07:00.808Z,25.2
2018-02-20T13:08:01.549Z,24.7
2018-02-20T13:09:02.353Z,25.2
2018-02-20T13:10:03.085Z,24.1
2018-02-20T13:11:03.830Z,23.3
2018-02-20T13:12:04.567Z,26.2
2018-02-20T13:13:05.378Z,24.4
2018-02-20T13:14:06.175Z,24.0
2018-02-20T13:15:06.997Z,24.4
2018-02-20T13:16:07.808Z,24.1
2018-02-20T13:17:08.583Z,24.9
2018-02-20T13:18:09.357Z,24.6
2018-02-20T13:19:10.118Z,23.9
2018-02-20T13:20:10.923Z,24.4
2018-02-20T13:21:11.690Z,24.5
2018-02-20T13:22:12.426Z,24.8
2018-02-20T13:23:13.167Z,24.1
2018-02-20T13:24:13.914Z,25.2
2018-02-20T13:25:14.691Z,24.8
2018-02-20T13:26:15.430Z,25.2
2018-02-20T13:27:16.160Z,25.1
2018-02-20T13:28:16.891Z,25.4
2018-02-20T13:29:17.608Z,26.0
2018-02-20T13:30:18.393Z,25.7